Time;durP1;ratioP1;P1;durP2;ratioP2;P2;SDS_P1;SDS_P2;PMS_P1;PMS_P2;Temp;Humidity;BMP_temperature;BMP_pressure;BME280_temperature;BME280_humidity;BME280_pressure;Samples;Min_cycle;Max_cycle;Signal;HPM_P1;HPM_P2
2022/07/29 00:02:20;;;;;;;2.45;2.00;;;;;;;;;;5118884;28;22201;-71
2022/07/29 00:04:47;;;;;;;2.67;2.08;;;;;;;;;;5119404;28;20227;-71
2022/07/29 00:07:14;;;;;;;2.53;2.33;;;;;;;;;;5118926;28;20294;-71
2022/07/29 00:09:42;;;;;;;3.90;1.98;;;;;;;;;;5119013;28;20230;-71
2022/07/29 00:12:09;;;;;;;2.47;2.15;;;;;;;;;;5118496;28;20241;-71
2022/07/29 00:14:37;;;;;;;2.38;2.15;;;;;;;;;;5118780;28;20304;-71
2022/07/29 00:17:05;;;;;;;2.15;2.00;;;;;;;;;;5118272;28;20225;-71
2022/07/29 00:19:34;;;;;;;2.50;2.30;;;;;;;;;;5119353;28;20230;-71
2022/07/29 00:22:01;;;;;;;2.40;2.20;;;;;;;;;;5117862;28;20226;-71
2022/07/29 00:24:28;;;;;;;2.40;2.20;;;;;;;;;;5118976;28;20223;-71
2022/07/29 00:26:55;;;;;;;2.50;2.30;;;;;;;;;;5118062;28;20222;-71
2022/07/29 00:29:23;;;;;;;2.22;2.03;;;;;;;;;;5114490;28;20239;-71
2022/07/29 00:31:50;;;;;;;2.55;2.30;;;;;;;;;;5098518;28;20242;-71
2022/07/29 00:37:04;;;;;;;2.65;2.10;;;;;;;;;;5118125;28;20287;-71
2022/07/29 00:39:31;;;;;;;2.70;2.20;;;;;;;;;;5100648;28;20301;-71
2022/07/29 00:41:59;;;;;;;2.25;2.05;;;;;;;;;;5115413;28;20719;-71
2022/07/29 00:44:26;;;;;;;2.30;2.10;;;;;;;;;;5118653;28;20227;-70
2022/07/29 00:46:53;;;;;;;3.20;2.15;;;;;;;;;;5117948;28;20234;-70
2022/07/29 00:49:22;;;;;;;2.40;2.20;;;;;;;;;;5097737;28;20563;-71
2022/07/29 00:51:50;;;;;;;2.40;2.05;;;;;;;;;;5115041;28;20650;-71
2022/07/29 00:54:17;;;;;;;3.08;2.15;;;;;;;;;;5118618;28;20227;-71
2022/07/29 00:56:44;;;;;;;3.33;2.10;;;;;;;;;;5117922;28;20230;-72
2022/07/29 00:59:12;;;;;;;2.30;2.10;;;;;;;;;;5118488;28;20230;-71
2022/07/29 01:01:39;;;;;;;2.55;2.10;;;;;;;;;;5117867;28;20313;-72
2022/07/29 01:04:07;;;;;;;2.33;2.10;;;;;;;;;;5118260;28;20234;-71
2022/07/29 01:06:36;;;;;;;2.63;2.42;;;;;;;;;;5117760;28;20557;-71
2022/07/29 01:09:03;;;;;;;2.22;2.13;;;;;;;;;;5115535;28;20276;-71
2022/07/29 01:11:30;;;;;;;2.13;2.00;;;;;;;;;;5108522;28;20223;-71
2022/07/29 01:13:58;;;;;;;2.50;2.20;;;;;;;;;;5107190;28;20235;-71
2022/07/29 01:16:30;;;;;;;2.35;2.15;;;;;;;;;;5117844;28;20264;-71
2022/07/29 01:19:00;;;;;;;2.50;2.20;;;;;;;;;;5117277;28;20298;-71
2022/07/29 01:21:45;;;;;;;2.80;2.50;;;;;;;;;;5117179;28;20227;-71
2022/07/29 01:24:22;;;;;;;2.25;2.05;;;;;;;;;;5116942;28;20223;-71
2022/07/29 01:26:51;;;;;;;1.98;1.88;;;;;;;;;;5115624;28;20214;-71
2022/07/29 01:29:21;;;;;;;2.40;2.20;;;;;;;;;;5124690;27;20230;-71
2022/07/29 01:31:50;;;;;;;2.88;2.10;;;;;;;;;;5137360;27;20226;-71
2022/07/29 01:34:19;;;;;;;3.25;2.30;;;;;;;;;;5131234;27;20232;-70
2022/07/29 01:36:50;;;;;;;3.03;2.47;;;;;;;;;;5137428;27;20675;-70
2022/07/29 01:39:21;;;;;;;2.47;2.28;;;;;;;;;;5137987;27;20222;-71
2022/07/29 01:41:51;;;;;;;2.50;2.30;;;;;;;;;;5137255;27;20793;-71
2022/07/29 01:44:21;;;;;;;2.13;1.90;;;;;;;;;;5138021;27;20335;-72
2022/07/29 01:46:54;;;;;;;2.42;2.22;;;;;;;;;;5137977;27;20223;-72
2022/07/29 01:49:23;;;;;;;3.10;2.35;;;;;;;;;;5137628;27;20644;-71
2022/07/29 01:51:52;;;;;;;2.60;2.40;;;;;;;;;;5137996;27;20226;-72
2022/07/29 01:54:21;;;;;;;2.45;2.25;;;;;;;;;;5138233;27;20226;-71
2022/07/29 01:56:50;;;;;;;2.30;1.95;;;;;;;;;;5137747;27;20222;-71
2022/07/29 01:59:18;;;;;;;2.60;2.17;;;;;;;;;;5137602;27;20283;-71
2022/07/29 02:01:47;;;;;;;2.00;1.80;;;;;;;;;;5137684;27;20366;-72
2022/07/29 02:04:16;;;;;;;2.50;2.05;;;;;;;;;;5136931;27;20771;-73
2022/07/29 02:06:46;;;;;;;3.60;2.35;;;;;;;;;;5137466;27;20234;-71
2022/07/29 02:09:14;;;;;;;2.60;2.40;;;;;;;;;;5137037;27;20237;-74
2022/07/29 02:11:41;;;;;;;2.53;2.22;;;;;;;;;;5137149;27;20294;-71
2022/07/29 02:14:10;;;;;;;2.42;2.22;;;;;;;;;;5137819;27;20311;-72
2022/07/29 02:16:38;;;;;;;2.55;2.35;;;;;;;;;;5137784;27;20259;-71
2022/07/29 02:19:08;;;;;;;2.58;2.38;;;;;;;;;;5137236;28;20510;-71
2022/07/29 02:21:37;;;;;;;2.60;2.40;;;;;;;;;;5137849;28;20221;-71
2022/07/29 02:24:05;;;;;;;2.35;2.15;;;;;;;;;;5138187;28;20477;-71
2022/07/29 02:26:34;;;;;;;2.40;2.20;;;;;;;;;;5137549;28;20198;-72
2022/07/29 02:29:01;;;;;;;3.55;2.35;;;;;;;;;;5132884;27;20238;-71
2022/07/29 02:31:31;;;;;;;2.30;2.10;;;;;;;;;;5116721;28;20213;-72
2022/07/29 02:34:00;;;;;;;2.65;2.45;;;;;;;;;;5117549;28;20238;-72
2022/07/29 02:36:29;;;;;;;2.85;2.65;;;;;;;;;;5119665;28;20601;-71
2022/07/29 02:39:00;;;;;;;2.40;2.20;;;;;;;;;;5102225;28;20531;-71
2022/07/29 02:41:30;;;;;;;2.08;1.88;;;;;;;;;;5108812;28;20310;-71
2022/07/29 02:43:58;;;;;;;2.22;2.03;;;;;;;;;;5121632;28;20298;-71
2022/07/29 02:46:29;;;;;;;2.40;2.20;;;;;;;;;;5121281;28;20248;-71
2022/07/29 02:48:58;;;;;;;2.42;2.22;;;;;;;;;;5121377;28;20567;-71
2022/07/29 02:51:28;;;;;;;3.15;2.50;;;;;;;;;;5121335;28;20202;-71
2022/07/29 02:53:58;;;;;;;2.75;2.30;;;;;;;;;;5121300;28;20536;-71
2022/07/29 02:56:27;;;;;;;2.30;2.10;;;;;;;;;;5121299;28;20202;-71
2022/07/29 02:58:56;;;;;;;2.38;2.17;;;;;;;;;;5120732;28;20199;-72
2022/07/29 03:01:24;;;;;;;2.47;2.28;;;;;;;;;;5120874;28;20202;-71
2022/07/29 03:03:53;;;;;;;2.38;2.17;;;;;;;;;;5121566;28;20534;-71
2022/07/29 03:06:21;;;;;;;3.22;2.38;;;;;;;;;;5120901;28;20199;-71
2022/07/29 03:08:48;;;;;;;2.58;2.38;;;;;;;;;;5120694;28;20634;-71
2022/07/29 03:11:18;;;;;;;2.25;2.05;;;;;;;;;;5120451;28;20259;-71
2022/07/29 03:13:45;;;;;;;2.50;2.22;;;;;;;;;;5121205;28;20236;-71
2022/07/29 03:16:13;;;;;;;2.35;2.15;;;;;;;;;;5120376;28;20454;-71
2022/07/29 03:18:42;;;;;;;2.55;2.35;;;;;;;;;;5120465;28;20195;-74
2022/07/29 03:21:09;;;;;;;2.53;2.30;;;;;;;;;;5120060;28;20563;-71
2022/07/29 03:23:37;;;;;;;2.55;2.35;;;;;;;;;;5120116;28;20209;-71
2022/07/29 03:26:04;;;;;;;3.08;2.38;;;;;;;;;;5119366;28;20202;-71
2022/07/29 03:28:33;;;;;;;2.80;2.25;;;;;;;;;;5119121;28;20222;-72
2022/07/29 03:31:01;;;;;;;3.67;2.55;;;;;;;;;;5118414;28;20203;-71
2022/07/29 03:33:30;;;;;;;2.50;2.30;;;;;;;;;;5119088;28;20572;-71
2022/07/29 03:35:58;;;;;;;2.63;2.30;;;;;;;;;;5118898;28;20203;-72
2022/07/29 03:38:26;;;;;;;3.30;2.10;;;;;;;;;;5119366;28;20223;-71
2022/07/29 03:40:55;;;;;;;2.83;2.63;;;;;;;;;;5119247;28;20202;-72
2022/07/29 03:43:24;;;;;;;2.88;2.55;;;;;;;;;;5119576;28;20203;-71
2022/07/29 03:45:54;;;;;;;2.63;2.42;;;;;;;;;;5118966;28;20203;-71
2022/07/29 03:48:23;;;;;;;3.70;2.40;;;;;;;;;;5098458;28;20274;-71
2022/07/29 03:50:51;;;;;;;4.53;2.45;;;;;;;;;;5098564;28;20219;-71
2022/07/29 03:53:19;;;;;;;2.67;2.33;;;;;;;;;;5098194;28;20269;-71
2022/07/29 03:55:47;;;;;;;2.60;2.30;;;;;;;;;;5097876;28;20568;-72
2022/07/29 03:58:16;;;;;;;2.83;2.40;;;;;;;;;;5118111;28;20199;-71
2022/07/29 04:00:44;;;;;;;2.78;2.58;;;;;;;;;;5118285;28;20210;-71
2022/07/29 04:03:12;;;;;;;2.97;2.67;;;;;;;;;;5117998;28;20272;-71
2022/07/29 04:05:40;;;;;;;2.85;2.60;;;;;;;;;;5118417;28;20634;-71
2022/07/29 04:08:07;;;;;;;2.63;2.42;;;;;;;;;;5117853;28;20293;-71
2022/07/29 04:10:35;;;;;;;2.40;2.20;;;;;;;;;;5118177;28;20208;-71
2022/07/29 04:13:02;;;;;;;2.67;2.42;;;;;;;;;;5117352;28;20205;-71
2022/07/29 04:15:30;;;;;;;2.63;2.42;;;;;;;;;;5117421;28;20202;-71
2022/07/29 04:17:57;;;;;;;3.13;2.40;;;;;;;;;;5117250;28;20207;-72
2022/07/29 04:20:25;;;;;;;2.63;2.42;;;;;;;;;;5117621;28;20207;-72
2022/07/29 04:22:53;;;;;;;2.60;2.40;;;;;;;;;;5117310;28;20203;-71
2022/07/29 04:25:20;;;;;;;2.55;2.35;;;;;;;;;;5118409;28;20203;-71
2022/07/29 04:28:03;;;;;;;2.55;2.35;;;;;;;;;;5117109;28;20199;-71
2022/07/29 04:30:31;;;;;;;2.63;2.42;;;;;;;;;;5094351;27;1187624;-71
2022/07/29 04:32:58;;;;;;;3.72;2.45;;;;;;;;;;5138484;27;20259;-71
2022/07/29 04:35:27;;;;;;;2.58;2.38;;;;;;;;;;5138546;27;20198;-72
2022/07/29 04:37:54;;;;;;;2.65;2.45;;;;;;;;;;5138707;27;20535;-71
2022/07/29 04:40:22;;;;;;;3.20;2.90;;;;;;;;;;5139240;27;20195;-72
2022/07/29 04:42:49;;;;;;;2.55;2.35;;;;;;;;;;5138487;27;20525;-71
2022/07/29 04:45:17;;;;;;;2.58;2.38;;;;;;;;;;5139049;27;20210;-71
2022/07/29 04:47:44;;;;;;;2.60;2.40;;;;;;;;;;5138765;27;20281;-71
2022/07/29 04:50:11;;;;;;;2.45;2.25;;;;;;;;;;5139278;27;20264;-71
2022/07/29 04:52:40;;;;;;;2.75;2.47;;;;;;;;;;5138630;27;20206;-71
2022/07/29 04:55:08;;;;;;;2.70;2.50;;;;;;;;;;5138904;27;20563;-71
2022/07/29 04:57:35;;;;;;;2.60;2.40;;;;;;;;;;5137529;27;20207;-72
2022/07/29 05:00:03;;;;;;;2.75;2.53;;;;;;;;;;5138137;27;20542;-71
2022/07/29 05:02:30;;;;;;;2.70;2.50;;;;;;;;;;5138028;27;20210;-71
2022/07/29 05:04:57;;;;;;;2.63;2.42;;;;;;;;;;5137600;27;20255;-71
2022/07/29 05:07:25;;;;;;;2.28;2.17;;;;;;;;;;5137283;27;20485;-71
2022/07/29 05:09:56;;;;;;;2.67;2.42;;;;;;;;;;5137651;27;20223;-71
2022/07/29 05:12:24;;;;;;;3.05;2.72;;;;;;;;;;5137907;27;20268;-71
2022/07/29 05:14:51;;;;;;;2.38;2.10;;;;;;;;;;5138747;27;20479;-71
2022/07/29 05:17:18;;;;;;;2.63;2.42;;;;;;;;;;5138081;27;20198;-72
2022/07/29 05:19:46;;;;;;;3.47;2.50;;;;;;;;;;5138851;27;20202;-71
2022/07/29 05:22:13;;;;;;;2.70;2.50;;;;;;;;;;5138065;27;20198;-71
2022/07/29 05:24:40;;;;;;;2.50;2.30;;;;;;;;;;5138174;27;20210;-71
2022/07/29 05:27:09;;;;;;;2.58;2.38;;;;;;;;;;5137535;27;20201;-71
2022/07/29 05:29:36;;;;;;;2.50;2.30;;;;;;;;;;5137273;27;20618;-71
2022/07/29 05:32:04;;;;;;;3.00;2.80;;;;;;;;;;5137470;27;20194;-71
2022/07/29 05:34:31;;;;;;;2.50;2.30;;;;;;;;;;5137207;27;20190;-71
2022/07/29 05:36:58;;;;;;;2.40;2.20;;;;;;;;;;5131137;27;20286;-71
2022/07/29 05:39:26;;;;;;;2.80;2.60;;;;;;;;;;5116737;28;20644;-71
2022/07/29 05:41:53;;;;;;;2.85;2.40;;;;;;;;;;5117728;27;20195;-71
2022/07/29 05:44:22;;;;;;;3.03;2.80;;;;;;;;;;5116514;28;20198;-72
2022/07/29 05:46:49;;;;;;;2.83;2.63;;;;;;;;;;5123349;27;20533;-71
2022/07/29 05:49:16;;;;;;;3.45;3.10;;;;;;;;;;5136900;27;20214;-71
2022/07/29 05:51:44;;;;;;;2.47;2.28;;;;;;;;;;5135029;27;20594;-71
2022/07/29 05:54:11;;;;;;;3.30;2.85;;;;;;;;;;5137557;27;20562;-71
2022/07/29 05:56:38;;;;;;;2.70;2.50;;;;;;;;;;5137423;27;20534;-71
2022/07/29 05:59:06;;;;;;;2.90;2.55;;;;;;;;;;5137096;27;20198;-72
2022/07/29 06:01:39;;;;;;;3.00;2.80;;;;;;;;;;5136783;27;20194;-72
2022/07/29 06:04:06;;;;;;;3.40;3.10;;;;;;;;;;5135636;27;20197;-71
2022/07/29 06:06:33;;;;;;;3.13;2.83;;;;;;;;;;5116323;28;20561;-71
2022/07/29 06:09:00;;;;;;;2.95;2.75;;;;;;;;;;5115572;28;20633;-71
2022/07/29 06:11:28;;;;;;;3.10;2.90;;;;;;;;;;5117974;27;20198;-71
2022/07/29 06:13:56;;;;;;;3.00;2.70;;;;;;;;;;5116160;28;20206;-72
2022/07/29 06:16:23;;;;;;;3.72;2.92;;;;;;;;;;5118716;28;20202;-71
2022/07/29 06:18:52;;;;;;;3.30;3.00;;;;;;;;;;5132954;27;20632;-72
2022/07/29 06:21:19;;;;;;;2.90;2.60;;;;;;;;;;5117211;28;20203;-71
2022/07/29 06:23:46;;;;;;;2.80;2.60;;;;;;;;;;5117042;28;20202;-71
2022/07/29 06:26:13;;;;;;;2.92;2.65;;;;;;;;;;5117625;28;20264;-71
2022/07/29 06:28:41;;;;;;;2.95;2.75;;;;;;;;;;5136674;28;20202;-71
2022/07/29 06:31:08;;;;;;;3.22;2.95;;;;;;;;;;5135936;28;20495;-71
2022/07/29 06:33:36;;;;;;;3.13;2.92;;;;;;;;;;5115841;28;20211;-71
2022/07/29 06:36:06;;;;;;;3.17;2.90;;;;;;;;;;5128361;28;20202;-71
2022/07/29 06:38:34;;;;;;;3.05;2.78;;;;;;;;;;5116987;28;20203;-71
2022/07/29 06:41:02;;;;;;;2.92;2.72;;;;;;;;;;5104065;28;20190;-71
2022/07/29 06:43:31;;;;;;;2.95;2.65;;;;;;;;;;5115274;28;20199;-71
2022/07/29 06:45:59;;;;;;;2.97;2.75;;;;;;;;;;5116236;28;20214;-71
2022/07/29 06:48:27;;;;;;;3.03;2.80;;;;;;;;;;5116855;28;20283;-71
2022/07/29 06:50:54;;;;;;;3.30;3.00;;;;;;;;;;5116436;28;20234;-72
2022/07/29 06:53:23;;;;;;;3.00;2.80;;;;;;;;;;5134794;28;20212;-72
2022/07/29 06:55:50;;;;;;;3.00;2.80;;;;;;;;;;5094917;28;20235;-71
2022/07/29 06:58:20;;;;;;;3.50;3.03;;;;;;;;;;5115101;28;20199;-71
2022/07/29 07:00:47;;;;;;;3.90;2.90;;;;;;;;;;5116208;28;20206;-72
2022/07/29 07:03:15;;;;;;;3.55;2.92;;;;;;;;;;5116305;28;20271;-71
2022/07/29 07:05:42;;;;;;;2.70;2.50;;;;;;;;;;5132606;28;20587;-73
2022/07/29 07:08:10;;;;;;;2.83;2.60;;;;;;;;;;5115578;28;20213;-71
2022/07/29 07:10:38;;;;;;;3.00;2.70;;;;;;;;;;5117492;28;20230;-71
2022/07/29 07:13:06;;;;;;;3.70;2.90;;;;;;;;;;5127289;28;20199;-71
2022/07/29 07:15:33;;;;;;;2.80;2.50;;;;;;;;;;5114905;28;20229;-71
2022/07/29 07:18:00;;;;;;;3.35;2.92;;;;;;;;;;5130062;28;20199;-71
2022/07/29 07:20:28;;;;;;;4.00;2.90;;;;;;;;;;5135672;27;20820;-71
2022/07/29 07:22:56;;;;;;;3.03;2.78;;;;;;;;;;5138958;27;20594;-71
2022/07/29 07:25:24;;;;;;;2.78;2.58;;;;;;;;;;5136491;27;20199;-72
2022/07/29 07:27:52;;;;;;;4.15;3.08;;;;;;;;;;5117825;28;20199;-71
2022/07/29 07:30:20;;;;;;;3.00;2.70;;;;;;;;;;5131953;27;20234;-71
2022/07/29 07:32:47;;;;;;;3.00;2.80;;;;;;;;;;5139081;27;20209;-71
2022/07/29 07:35:15;;;;;;;3.20;2.90;;;;;;;;;;5138953;27;20198;-71
2022/07/29 07:37:42;;;;;;;2.97;2.60;;;;;;;;;;5133619;27;20206;-71
2022/07/29 07:40:11;;;;;;;3.17;2.97;;;;;;;;;;5118618;28;20211;-72
2022/07/29 07:42:38;;;;;;;3.03;2.80;;;;;;;;;;5118172;28;20210;-71
2022/07/29 07:45:09;;;;;;;3.10;2.80;;;;;;;;;;5118568;28;20264;-71
2022/07/29 07:47:36;;;;;;;3.00;2.70;;;;;;;;;;5118606;28;20230;-71
2022/07/29 07:50:05;;;;;;;3.08;2.80;;;;;;;;;;5118192;28;20275;-71
2022/07/29 07:52:32;;;;;;;3.10;2.80;;;;;;;;;;5138127;27;20202;-71
2022/07/29 07:55:00;;;;;;;3.42;2.67;;;;;;;;;;5139048;27;20203;-71
2022/07/29 07:57:28;;;;;;;2.78;2.58;;;;;;;;;;5139053;27;20590;-71
2022/07/29 07:59:55;;;;;;;3.05;2.78;;;;;;;;;;5138607;27;20201;-71
2022/07/29 08:02:24;;;;;;;3.15;2.85;;;;;;;;;;5137469;27;20202;-71
2022/07/29 08:04:51;;;;;;;3.10;2.65;;;;;;;;;;5137716;27;20229;-71
2022/07/29 08:07:19;;;;;;;2.60;2.40;;;;;;;;;;5129380;27;20198;-71
2022/07/29 08:09:46;;;;;;;2.75;2.55;;;;;;;;;;5131993;27;20222;-71
2022/07/29 08:12:13;;;;;;;3.05;2.75;;;;;;;;;;5138157;27;20210;-71
2022/07/29 08:14:40;;;;;;;3.42;2.88;;;;;;;;;;5138763;27;20210;-71
2022/07/29 08:17:08;;;;;;;3.05;2.85;;;;;;;;;;5137389;27;20770;-71
2022/07/29 08:19:38;;;;;;;2.60;2.40;;;;;;;;;;5137369;27;20209;-71
2022/07/29 08:22:05;;;;;;;3.05;2.72;;;;;;;;;;5137232;27;20198;-71
2022/07/29 08:24:51;;;;;;;3.10;2.70;;;;;;;;;;5137466;27;20210;-71
2022/07/29 08:27:19;;;;;;;3.58;2.50;;;;;;;;;;5136841;27;20198;-71
2022/07/29 08:29:46;;;;;;;2.92;2.65;;;;;;;;;;5135874;27;20237;-71
2022/07/29 08:32:15;;;;;;;2.88;2.67;;;;;;;;;;5136713;27;20539;-71
2022/07/29 08:34:45;;;;;;;2.60;2.40;;;;;;;;;;5137040;27;20276;-71
2022/07/29 08:37:13;;;;;;;2.70;2.50;;;;;;;;;;5135688;27;20199;-70
2022/07/29 08:39:41;;;;;;;2.80;2.60;;;;;;;;;;5135850;27;20191;-71
2022/07/29 08:42:09;;;;;;;3.05;2.80;;;;;;;;;;5136946;27;20666;-71
2022/07/29 08:44:38;;;;;;;2.72;2.50;;;;;;;;;;5128697;27;20310;-71
2022/07/29 08:47:05;;;;;;;3.20;2.60;;;;;;;;;;5133546;27;20289;-71
2022/07/29 08:49:35;;;;;;;2.53;2.30;;;;;;;;;;5137103;27;20202;-71
2022/07/29 08:52:04;;;;;;;2.65;2.45;;;;;;;;;;5136764;27;20205;-71
2022/07/29 08:54:32;;;;;;;2.97;2.78;;;;;;;;;;5137206;27;20224;-71
2022/07/29 08:56:59;;;;;;;2.92;2.40;;;;;;;;;;5136820;27;20507;-71
2022/07/29 08:59:28;;;;;;;2.70;2.50;;;;;;;;;;5137070;27;20205;-71
2022/07/29 09:01:57;;;;;;;3.42;2.63;;;;;;;;;;5136061;27;20193;-71
2022/07/29 09:04:26;;;;;;;3.00;2.70;;;;;;;;;;5137695;27;20247;-71
2022/07/29 09:06:54;;;;;;;3.42;2.67;;;;;;;;;;5135867;27;20267;-71
2022/07/29 09:09:23;;;;;;;2.30;2.20;;;;;;;;;;5136393;27;20195;-71
2022/07/29 09:11:53;;;;;;;2.95;2.60;;;;;;;;;;5136372;27;20218;-70
2022/07/29 09:14:20;;;;;;;2.50;2.30;;;;;;;;;;5137075;27;20521;-71
2022/07/29 09:16:48;;;;;;;2.50;2.30;;;;;;;;;;5135422;27;20194;-72
2022/07/29 09:19:23;;;;;;;2.70;2.50;;;;;;;;;;5135473;27;20241;-71
2022/07/29 09:21:59;;;;;;;2.60;2.40;;;;;;;;;;5136377;27;20202;-71
2022/07/29 09:24:29;;;;;;;2.97;2.47;;;;;;;;;;5137122;27;20474;-71
2022/07/29 09:26:56;;;;;;;4.43;2.40;;;;;;;;;;5136615;27;20201;-71
2022/07/29 09:29:25;;;;;;;2.70;2.50;;;;;;;;;;5135700;27;20218;-71
2022/07/29 09:31:53;;;;;;;2.63;2.42;;;;;;;;;;5135085;27;20333;-71
2022/07/29 09:34:23;;;;;;;2.80;2.60;;;;;;;;;;5134571;27;20220;-71
2022/07/29 09:36:52;;;;;;;2.88;2.67;;;;;;;;;;5133858;27;20629;-71
2022/07/29 09:39:30;;;;;;;3.22;2.70;;;;;;;;;;5133223;27;20222;-71
2022/07/29 09:41:58;;;;;;;2.78;2.58;;;;;;;;;;5134183;27;20218;-70
2022/07/29 09:44:26;;;;;;;2.60;2.40;;;;;;;;;;5135640;27;20233;-70
2022/07/29 09:46:58;;;;;;;2.90;2.70;;;;;;;;;;5134457;27;20218;-70
2022/07/29 09:49:25;;;;;;;2.83;2.63;;;;;;;;;;5135254;27;20264;-71
2022/07/29 09:52:01;;;;;;;3.00;2.70;;;;;;;;;;5133898;27;20646;-71
2022/07/29 09:54:36;;;;;;;3.00;2.80;;;;;;;;;;5135696;27;20236;-71
2022/07/29 09:57:04;;;;;;;2.85;2.63;;;;;;;;;;5134751;27;20553;-70
2022/07/29 09:59:31;;;;;;;2.95;2.75;;;;;;;;;;5134941;27;20226;-71
2022/07/29 10:01:58;;;;;;;2.60;2.40;;;;;;;;;;5133352;27;20297;-70
2022/07/29 10:04:26;;;;;;;3.20;2.90;;;;;;;;;;5134787;27;20562;-71
2022/07/29 10:06:59;;;;;;;3.03;2.70;;;;;;;;;;5133370;27;20851;-70
2022/07/29 10:09:27;;;;;;;2.80;2.60;;;;;;;;;;5115067;28;20230;-70
2022/07/29 10:12:10;;;;;;;2.97;2.78;;;;;;;;;;5133270;27;20218;-70
2022/07/29 10:14:38;;;;;;;2.80;2.60;;;;;;;;;;5134211;27;20229;-70
2022/07/29 10:17:05;;;;;;;3.10;2.80;;;;;;;;;;5133765;27;20770;-70
2022/07/29 10:19:34;;;;;;;2.60;2.40;;;;;;;;;;5135201;27;20237;-70
2022/07/29 10:22:02;;;;;;;3.30;3.00;;;;;;;;;;5132191;27;20590;-71
2022/07/29 10:24:30;;;;;;;3.30;3.00;;;;;;;;;;5134985;28;20217;-71
2022/07/29 10:26:58;;;;;;;3.22;2.92;;;;;;;;;;5134505;28;20279;-71
2022/07/29 10:29:28;;;;;;;3.00;2.80;;;;;;;;;;5134257;28;20293;-69
2022/07/29 10:32:04;;;;;;;3.72;3.42;;;;;;;;;;5133907;28;20218;-69
2022/07/29 10:34:36;;;;;;;3.60;3.30;;;;;;;;;;5133265;28;20261;-69
2022/07/29 10:37:09;;;;;;;3.20;3.00;;;;;;;;;;5129541;28;20755;-69
2022/07/29 10:39:45;;;;;;;3.33;3.13;;;;;;;;;;5130037;28;20226;-69
2022/07/29 10:42:19;;;;;;;3.13;2.92;;;;;;;;;;5135284;27;20324;-69
2022/07/29 10:44:48;;;;;;;3.38;3.10;;;;;;;;;;5133753;27;20259;-69
2022/07/29 10:47:22;;;;;;;3.53;3.30;;;;;;;;;;5126011;28;20279;-69
2022/07/29 10:49:59;;;;;;;3.63;3.35;;;;;;;;;;5135111;28;20325;-69
2022/07/29 10:52:46;;;;;;;3.00;2.80;;;;;;;;;;5134351;28;20609;-69
2022/07/29 10:55:28;;;;;;;3.22;3.03;;;;;;;;;;5134164;27;20225;-69
2022/07/29 10:58:11;;;;;;;3.28;2.97;;;;;;;;;;5137663;27;20226;-70
2022/07/29 11:00:39;;;;;;;3.05;2.85;;;;;;;;;;5138555;27;20214;-70
2022/07/29 11:03:07;;;;;;;3.75;3.45;;;;;;;;;;5137544;27;20294;-70
2022/07/29 11:05:53;;;;;;;3.22;3.03;;;;;;;;;;5138387;27;20226;-70
2022/07/29 11:08:25;;;;;;;3.28;3.08;;;;;;;;;;5138010;27;20226;-69
2022/07/29 11:10:53;;;;;;;3.85;3.25;;;;;;;;;;5137039;27;20222;-69
2022/07/29 11:13:39;;;;;;;3.50;3.30;;;;;;;;;;5137333;27;20226;-69
2022/07/29 11:16:07;;;;;;;3.20;3.00;;;;;;;;;;5131126;27;20517;-69
2022/07/29 11:18:35;;;;;;;3.35;3.15;;;;;;;;;;5137801;27;20233;-69
2022/07/29 11:21:02;;;;;;;3.28;3.03;;;;;;;;;;5137156;27;20222;-70
2022/07/29 11:23:31;;;;;;;3.50;3.30;;;;;;;;;;5138049;27;20233;-70
2022/07/29 11:26:19;;;;;;;3.40;3.20;;;;;;;;;;5135817;27;20210;-70
2022/07/29 11:28:59;;;;;;;3.47;3.20;;;;;;;;;;5136421;27;20223;-70
2022/07/29 11:31:41;;;;;;;3.45;3.15;;;;;;;;;;5137218;27;20232;-69
2022/07/29 11:34:18;;;;;;;3.33;3.13;;;;;;;;;;5137681;27;20781;-70
2022/07/29 11:37:04;;;;;;;3.30;3.10;;;;;;;;;;5136774;27;20512;-70
2022/07/29 11:39:32;;;;;;;3.95;3.65;;;;;;;;;;5135393;27;20301;-70
2022/07/29 11:42:30;;;;;;;3.60;3.30;;;;;;;;;;5136681;27;20279;-70
2022/07/29 11:44:58;;;;;;;3.92;3.63;;;;;;;;;;5136467;27;20626;-70
2022/07/29 11:47:27;;;;;;;3.50;3.20;;;;;;;;;;5137089;27;20283;-70
2022/07/29 11:49:55;;;;;;;4.00;3.70;;;;;;;;;;5139078;27;20218;-70
2022/07/29 11:52:22;;;;;;;3.90;3.60;;;;;;;;;;5137404;27;20230;-69
2022/07/29 11:54:51;;;;;;;3.63;3.42;;;;;;;;;;5138003;27;20313;-70
2022/07/29 11:57:19;;;;;;;3.80;3.50;;;;;;;;;;5136379;27;20222;-70
2022/07/29 11:59:47;;;;;;;3.50;3.30;;;;;;;;;;5136375;27;20225;-70
2022/07/29 12:02:15;;;;;;;4.03;3.70;;;;;;;;;;5137524;27;20258;-70
2022/07/29 12:04:51;;;;;;;3.50;3.30;;;;;;;;;;5137731;27;20896;-70
2022/07/29 12:07:18;;;;;;;3.95;3.65;;;;;;;;;;5136510;27;20230;-70
2022/07/29 12:09:51;;;;;;;3.67;3.38;;;;;;;;;;5136695;27;20214;-70
2022/07/29 12:12:18;;;;;;;3.85;3.60;;;;;;;;;;5135497;27;20230;-69
2022/07/29 12:14:46;;;;;;;4.10;3.72;;;;;;;;;;5136499;27;20290;-69
2022/07/29 12:17:27;;;;;;;3.90;3.60;;;;;;;;;;5135945;27;20233;-70
2022/07/29 12:19:57;;;;;;;3.63;3.42;;;;;;;;;;5135912;27;20500;-70
2022/07/29 12:22:28;;;;;;;3.90;3.60;;;;;;;;;;5135530;27;20237;-69
2022/07/29 12:24:56;;;;;;;3.40;3.20;;;;;;;;;;5137132;27;20203;-69
2022/07/29 12:27:23;;;;;;;3.67;3.38;;;;;;;;;;5136940;27;20722;-69
2022/07/29 12:29:57;;;;;;;3.60;3.40;;;;;;;;;;5136212;27;20316;-69
2022/07/29 12:32:24;;;;;;;3.80;3.50;;;;;;;;;;5135594;27;20226;-69
2022/07/29 12:34:52;;;;;;;3.67;3.38;;;;;;;;;;5137137;27;20202;-69
2022/07/29 12:37:21;;;;;;;3.38;3.17;;;;;;;;;;5135651;27;20209;-69
2022/07/29 12:39:48;;;;;;;4.07;3.78;;;;;;;;;;5136398;27;20599;-69
2022/07/29 12:42:17;;;;;;;3.65;3.45;;;;;;;;;;5135986;27;20525;-70
2022/07/29 12:44:46;;;;;;;3.55;3.35;;;;;;;;;;5135815;27;20504;-69
2022/07/29 12:47:13;;;;;;;3.92;3.63;;;;;;;;;;5135520;27;20284;-70
2022/07/29 12:49:40;;;;;;;3.58;3.38;;;;;;;;;;5135733;27;20194;-69
2022/07/29 12:52:23;;;;;;;3.58;3.38;;;;;;;;;;5135706;27;20721;-69
2022/07/29 12:54:51;;;;;;;3.70;3.40;;;;;;;;;;5136680;27;20194;-70
2022/07/29 12:57:19;;;;;;;3.78;3.47;;;;;;;;;;5134702;27;20198;-70
2022/07/29 12:59:46;;;;;;;3.70;3.35;;;;;;;;;;5135383;27;20206;-70
2022/07/29 13:02:22;;;;;;;3.63;3.38;;;;;;;;;;5127230;27;20202;-71
2022/07/29 13:04:57;;;;;;;3.90;3.60;;;;;;;;;;5135945;27;20198;-70
2022/07/29 13:07:26;;;;;;;3.42;3.22;;;;;;;;;;5136220;27;20202;-70
2022/07/29 13:09:55;;;;;;;3.55;3.25;;;;;;;;;;5135312;27;20289;-70
2022/07/29 13:12:22;;;;;;;3.67;3.33;;;;;;;;;;5135295;27;20690;-69
2022/07/29 13:14:50;;;;;;;4.20;3.90;;;;;;;;;;5134655;27;20206;-69
2022/07/29 13:17:18;;;;;;;3.60;3.35;;;;;;;;;;5135004;27;20240;-69
2022/07/29 13:19:47;;;;;;;3.90;3.60;;;;;;;;;;5133475;27;20822;-69
2022/07/29 13:22:15;;;;;;;4.68;3.95;;;;;;;;;;5126708;27;20202;-69
2022/07/29 13:24:52;;;;;;;5.45;3.63;;;;;;;;;;5136267;27;20208;-70
2022/07/29 13:27:21;;;;;;;4.07;3.50;;;;;;;;;;5135642;27;20209;-70
2022/07/29 13:29:51;;;;;;;3.67;3.38;;;;;;;;;;5136051;27;20298;-69
2022/07/29 13:32:18;;;;;;;4.10;3.80;;;;;;;;;;5135599;27;20218;-70
2022/07/29 13:34:45;;;;;;;4.65;3.92;;;;;;;;;;5135283;27;20202;-70
2022/07/29 13:37:13;;;;;;;4.80;3.88;;;;;;;;;;5133819;27;20213;-70
2022/07/29 13:39:41;;;;;;;4.18;3.83;;;;;;;;;;5124522;27;20206;-70
2022/07/29 13:42:08;;;;;;;4.00;3.70;;;;;;;;;;5135920;27;20191;-69
2022/07/29 13:44:38;;;;;;;4.22;3.90;;;;;;;;;;5135543;27;20689;-69
2022/07/29 13:47:05;;;;;;;3.97;3.65;;;;;;;;;;5135617;27;20270;-69
2022/07/29 13:49:32;;;;;;;3.88;3.53;;;;;;;;;;5135085;27;20407;-69
2022/07/29 13:51:59;;;;;;;3.80;3.45;;;;;;;;;;5135086;27;20230;-69
2022/07/29 13:54:27;;;;;;;4.40;3.60;;;;;;;;;;5135927;27;20251;-70
2022/07/29 13:56:54;;;;;;;4.30;3.60;;;;;;;;;;5139677;27;20194;-69
2022/07/29 13:59:22;;;;;;;3.83;3.53;;;;;;;;;;5136153;27;20206;-69
2022/07/29 14:01:51;;;;;;;3.60;3.40;;;;;;;;;;5135303;27;20194;-69
2022/07/29 14:04:18;;;;;;;4.07;3.70;;;;;;;;;;5135762;27;20475;-69
2022/07/29 14:06:45;;;;;;;3.83;3.53;;;;;;;;;;5134887;27;20229;-70
2022/07/29 14:09:13;;;;;;;3.80;3.50;;;;;;;;;;5135098;27;20222;-69
2022/07/29 14:11:40;;;;;;;3.80;3.50;;;;;;;;;;5133667;27;20226;-69
2022/07/29 14:14:07;;;;;;;3.67;3.38;;;;;;;;;;5135072;27;20238;-69
2022/07/29 14:16:35;;;;;;;3.53;3.22;;;;;;;;;;5134015;27;20705;-70
2022/07/29 14:19:03;;;;;;;3.70;3.40;;;;;;;;;;5134095;27;20217;-70
2022/07/29 14:21:31;;;;;;;4.03;3.40;;;;;;;;;;5133958;27;20218;-70
2022/07/29 14:23:58;;;;;;;3.40;3.10;;;;;;;;;;5134484;27;20226;-70
2022/07/29 14:26:26;;;;;;;3.63;3.33;;;;;;;;;;5134710;28;20697;-70
2022/07/29 14:28:53;;;;;;;3.42;3.20;;;;;;;;;;5134393;28;20253;-69
2022/07/29 14:31:20;;;;;;;3.50;3.20;;;;;;;;;;5137932;27;20217;-69
2022/07/29 14:33:47;;;;;;;3.35;3.03;;;;;;;;;;5139915;27;20780;-70
2022/07/29 14:36:16;;;;;;;3.30;3.00;;;;;;;;;;5119898;27;20219;-69
2022/07/29 14:38:44;;;;;;;3.65;3.10;;;;;;;;;;5135684;27;20226;-69
2022/07/29 14:41:11;;;;;;;3.33;3.13;;;;;;;;;;5105284;28;20313;-69
2022/07/29 14:43:38;;;;;;;3.85;3.47;;;;;;;;;;5118244;28;20741;-69
2022/07/29 14:46:07;;;;;;;3.35;3.05;;;;;;;;;;5118797;27;20238;-69
2022/07/29 14:48:34;;;;;;;3.05;2.85;;;;;;;;;;5139016;27;20226;-69
2022/07/29 14:51:02;;;;;;;3.55;3.25;;;;;;;;;;5136137;27;20226;-69
2022/07/29 14:53:31;;;;;;;3.60;3.30;;;;;;;;;;5117669;28;20223;-69
2022/07/29 14:55:58;;;;;;;3.00;2.80;;;;;;;;;;5117618;28;20517;-70
2022/07/29 14:58:25;;;;;;;3.22;2.90;;;;;;;;;;5118873;28;20227;-69